ENBO

Bodø Airport

Bodø, Norway
METAR ENBO 261320Z 25015KT 9999 FEW015 SCT050 10/06 Q1034 NOSIG
Observed Flight Rules
May-26 @ 13:20 UTC (20 minutes ago) Visual Flight Rules
Wind Visibility Clouds
250° at 15 knots 10,000+ meters
  • Few at 1,500' AGL
  • Scattered at 5,000' AGL
Temperatures Readings
Current 10°C / 50°F
Dewpoint 6°C / 43°F
Humidity 76%
Altimeter 30.53" Hg
Pressure 1034 hPa
Elevation 13
METAR ENBO 261320Z 25015KT 9999 FEW015 SCT050 10/06 Q1034 NOSIG
Observed Flight Rules
May-26 @ 13:20 UTC
(20 minutes ago)
VFR
Wind Visibility
250° at 15 knots 10,000+ meters
Clouds
  • Few at 1,500' AGL
  • Scattered at 5,000' AGL
Temperature Dewpoint
10°C / 50°F 6°C / 43°F
Humidity Altimeter Pressure
76% 30.53" Hg 1034 hPa